sensor_id;sensor_type;location;lat;lon;timestamp;temperature;humidity
45339;DHT22;31071;51.478;5.710;2023-07-16T00:00:44;17.90;99.90
45339;DHT22;31071;51.478;5.710;2023-07-16T00:03:09;17.90;99.90
45339;DHT22;31071;51.478;5.710;2023-07-16T00:05:36;17.90;99.90
45339;DHT22;31071;51.478;5.710;2023-07-16T00:08:02;18.80;99.90
45339;DHT22;31071;51.478;5.710;2023-07-16T00:10:28;17.80;99.90
45339;DHT22;31071;51.478;5.710;2023-07-16T00:12:53;17.80;99.90
45339;DHT22;31071;51.478;5.710;2023-07-16T00:15:19;17.80;99.90
45339;DHT22;31071;51.478;5.710;2023-07-16T00:17:45;17.80;99.90
45339;DHT22;31071;51.478;5.710;2023-07-16T00:20:11;17.90;99.90
45339;DHT22;31071;51.478;5.710;2023-07-16T00:22:36;17.80;99.90
45339;DHT22;31071;51.478;5.710;2023-07-16T00:25:05;17.70;99.90
45339;DHT22;31071;51.478;5.710;2023-07-16T00:27:31;17.70;99.90
45339;DHT22;31071;51.478;5.710;2023-07-16T00:29:56;17.70;99.90
45339;DHT22;31071;51.478;5.710;2023-07-16T00:32:22;17.70;99.90
45339;DHT22;31071;51.478;5.710;2023-07-16T00:34:47;17.70;99.90
45339;DHT22;31071;51.478;5.710;2023-07-16T00:37:13;17.60;99.90
45339;DHT22;31071;51.478;5.710;2023-07-16T00:39:38;17.60;99.90
45339;DHT22;31071;51.478;5.710;2023-07-16T00:42:04;17.60;99.90
45339;DHT22;31071;51.478;5.710;2023-07-16T00:44:30;17.60;99.90
45339;DHT22;31071;51.478;5.710;2023-07-16T00:46:56;17.60;99.90
45339;DHT22;31071;51.478;5.710;2023-07-16T00:49:22;17.90;99.90
45339;DHT22;31071;51.478;5.710;2023-07-16T00:51:49;17.50;99.90
45339;DHT22;31071;51.478;5.710;2023-07-16T00:54:15;18.80;99.90
45339;DHT22;31071;51.478;5.710;2023-07-16T00:56:40;17.50;99.90
45339;DHT22;31071;51.478;5.710;2023-07-16T00:59:06;17.60;99.90
45339;DHT22;31071;51.478;5.710;2023-07-16T01:01:32;17.60;99.90
45339;DHT22;31071;51.478;5.710;2023-07-16T01:03:58;17.60;99.90
45339;DHT22;31071;51.478;5.710;2023-07-16T01:06:34;18.70;99.90
45339;DHT22;31071;51.478;5.710;2023-07-16T01:09:14;17.60;99.90
45339;DHT22;31071;51.478;5.710;2023-07-16T01:11:42;17.40;99.90
45339;DHT22;31071;51.478;5.710;2023-07-16T01:14:08;17.50;99.90
45339;DHT22;31071;51.478;5.710;2023-07-16T01:16:35;17.50;99.90
45339;DHT22;31071;51.478;5.710;2023-07-16T01:19:01;18.00;99.90
45339;DHT22;31071;51.478;5.710;2023-07-16T01:21:38;17.50;99.90
45339;DHT22;31071;51.478;5.710;2023-07-16T01:29:40;17.40;99.90
45339;DHT22;31071;51.478;5.710;2023-07-16T01:32:07;17.40;99.90
45339;DHT22;31071;51.478;5.710;2023-07-16T01:34:35;17.40;99.90
45339;DHT22;31071;51.478;5.710;2023-07-16T01:37:02;17.50;99.90
45339;DHT22;31071;51.478;5.710;2023-07-16T01:39:28;17.20;99.90
45339;DHT22;31071;51.478;5.710;2023-07-16T01:41:54;17.20;99.90
45339;DHT22;31071;51.478;5.710;2023-07-16T01:44:22;17.20;99.90
45339;DHT22;31071;51.478;5.710;2023-07-16T01:47:04;18.50;99.90
45339;DHT22;31071;51.478;5.710;2023-07-16T01:49:30;17.10;99.90
45339;DHT22;31071;51.478;5.710;2023-07-16T01:51:56;17.10;99.90
45339;DHT22;31071;51.478;5.710;2023-07-16T01:54:22;17.00;99.90
45339;DHT22;31071;51.478;5.710;2023-07-16T01:56:47;17.00;99.90
45339;DHT22;31071;51.478;5.710;2023-07-16T01:59:13;17.00;99.90
45339;DHT22;31071;51.478;5.710;2023-07-16T02:01:38;16.90;99.90
45339;DHT22;31071;51.478;5.710;2023-07-16T02:04:04;16.90;99.90
45339;DHT22;31071;51.478;5.710;2023-07-16T02:06:30;16.80;99.90
45339;DHT22;31071;51.478;5.710;2023-07-16T02:08:55;16.80;99.90
45339;DHT22;31071;51.478;5.710;2023-07-16T02:11:21;16.80;99.90
45339;DHT22;31071;51.478;5.710;2023-07-16T02:13:47;16.80;99.90
45339;DHT22;31071;51.478;5.710;2023-07-16T02:16:13;16.80;99.90
45339;DHT22;31071;51.478;5.710;2023-07-16T02:18:38;16.80;99.90
45339;DHT22;31071;51.478;5.710;2023-07-16T02:21:04;16.70;99.90
45339;DHT22;31071;51.478;5.710;2023-07-16T02:23:29;16.70;99.90
45339;DHT22;31071;51.478;5.710;2023-07-16T02:25:55;16.70;99.90
45339;DHT22;31071;51.478;5.710;2023-07-16T02:28:24;16.70;99.90
45339;DHT22;31071;51.478;5.710;2023-07-16T02:30:50;16.70;99.90
45339;DHT22;31071;51.478;5.710;2023-07-16T02:33:16;16.70;99.90
45339;DHT22;31071;51.478;5.710;2023-07-16T02:35:48;19.20;99.90
45339;DHT22;31071;51.478;5.710;2023-07-16T02:38:15;17.20;99.90
45339;DHT22;31071;51.478;5.710;2023-07-16T02:40:44;16.60;99.90
45339;DHT22;31071;51.478;5.710;2023-07-16T02:43:10;16.60;99.90
45339;DHT22;31071;51.478;5.710;2023-07-16T02:45:42;16.60;99.90
45339;DHT22;31071;51.478;5.710;2023-07-16T02:48:11;16.50;99.90
45339;DHT22;31071;51.478;5.710;2023-07-16T02:50:37;16.50;99.90
45339;DHT22;31071;51.478;5.710;2023-07-16T02:53:07;16.50;99.90
45339;DHT22;31071;51.478;5.710;2023-07-16T02:55:34;16.50;99.90
45339;DHT22;31071;51.478;5.710;2023-07-16T02:58:02;17.70;99.90
45339;DHT22;31071;51.478;5.710;2023-07-16T03:00:30;16.40;99.90
45339;DHT22;31071;51.478;5.710;2023-07-16T03:02:57;16.40;99.90
45339;DHT22;31071;51.478;5.710;2023-07-16T03:05:24;16.40;99.90
45339;DHT22;31071;51.478;5.710;2023-07-16T03:07:50;16.40;99.90
45339;DHT22;31071;51.478;5.710;2023-07-16T03:10:20;16.30;99.90
45339;DHT22;31071;51.478;5.710;2023-07-16T03:12:48;16.30;99.90
45339;DHT22;31071;51.478;5.710;2023-07-16T03:15:14;16.20;99.90
45339;DHT22;31071;51.478;5.710;2023-07-16T03:17:39;16.10;99.90
45339;DHT22;31071;51.478;5.710;2023-07-16T03:20:05;16.10;99.90
45339;DHT22;31071;51.478;5.710;2023-07-16T03:22:31;16.10;99.90
45339;DHT22;31071;51.478;5.710;2023-07-16T03:24:57;16.20;99.90
45339;DHT22;31071;51.478;5.710;2023-07-16T03:27:22;17.00;99.90
45339;DHT22;31071;51.478;5.710;2023-07-16T03:29:48;16.00;99.90
45339;DHT22;31071;51.478;5.710;2023-07-16T03:32:14;16.00;99.90
45339;DHT22;31071;51.478;5.710;2023-07-16T03:34:39;16.00;99.90
45339;DHT22;31071;51.478;5.710;2023-07-16T03:37:05;15.90;99.90
45339;DHT22;31071;51.478;5.710;2023-07-16T03:39:31;15.90;99.90
45339;DHT22;31071;51.478;5.710;2023-07-16T03:41:56;15.90;99.90
45339;DHT22;31071;51.478;5.710;2023-07-16T03:44:22;15.80;99.90
45339;DHT22;31071;51.478;5.710;2023-07-16T03:46:47;15.70;99.90
45339;DHT22;31071;51.478;5.710;2023-07-16T03:49:13;15.70;99.90
45339;DHT22;31071;51.478;5.710;2023-07-16T03:51:39;15.70;99.90
45339;DHT22;31071;51.478;5.710;2023-07-16T03:54:04;15.70;99.90
45339;DHT22;31071;51.478;5.710;2023-07-16T03:56:30;17.80;99.90
45339;DHT22;31071;51.478;5.710;2023-07-16T03:58:55;15.60;99.90
45339;DHT22;31071;51.478;5.710;2023-07-16T04:01:21;16.00;99.90
45339;DHT22;31071;51.478;5.710;2023-07-16T04:03:47;15.60;99.90
45339;DHT22;31071;51.478;5.710;2023-07-16T04:06:12;15.50;99.90
45339;DHT22;31071;51.478;5.710;2023-07-16T04:08:38;15.60;99.90
45339;DHT22;31071;51.478;5.710;2023-07-16T04:11:04;15.50;99.90
45339;DHT22;31071;51.478;5.710;2023-07-16T04:13:30;15.60;99.90
45339;DHT22;31071;51.478;5.710;2023-07-16T04:15:56;15.60;99.90
45339;DHT22;31071;51.478;5.710;2023-07-16T04:18:23;15.50;99.90
45339;DHT22;31071;51.478;5.710;2023-07-16T04:20:49;15.50;99.90
45339;DHT22;31071;51.478;5.710;2023-07-16T04:23:15;15.50;99.90
45339;DHT22;31071;51.478;5.710;2023-07-16T04:25:44;15.60;99.90
45339;DHT22;31071;51.478;5.710;2023-07-16T04:28:11;15.60;99.90
45339;DHT22;31071;51.478;5.710;2023-07-16T04:30:37;15.60;99.90
45339;DHT22;31071;51.478;5.710;2023-07-16T04:33:04;15.60;99.90
45339;DHT22;31071;51.478;5.710;2023-07-16T04:35:29;15.60;99.90
45339;DHT22;31071;51.478;5.710;2023-07-16T04:37:55;15.60;99.90
45339;DHT22;31071;51.478;5.710;2023-07-16T04:40:21;15.60;99.90
45339;DHT22;31071;51.478;5.710;2023-07-16T04:42:47;15.60;99.90
45339;DHT22;31071;51.478;5.710;2023-07-16T04:45:12;16.50;99.90
45339;DHT22;31071;51.478;5.710;2023-07-16T04:47:38;15.60;99.90
45339;DHT22;31071;51.478;5.710;2023-07-16T04:50:04;15.60;99.90
45339;DHT22;31071;51.478;5.710;2023-07-16T04:52:30;15.70;99.90
45339;DHT22;31071;51.478;5.710;2023-07-16T04:54:55;16.60;99.90
45339;DHT22;31071;51.478;5.710;2023-07-16T04:57:21;15.70;99.90
45339;DHT22;31071;51.478;5.710;2023-07-16T04:59:47;15.80;99.90
45339;DHT22;31071;51.478;5.710;2023-07-16T05:02:12;15.70;99.90
45339;DHT22;31071;51.478;5.710;2023-07-16T05:04:39;15.70;99.90
45339;DHT22;31071;51.478;5.710;2023-07-16T05:07:05;15.70;99.90
45339;DHT22;31071;51.478;5.710;2023-07-16T05:09:30;15.70;99.90
45339;DHT22;31071;51.478;5.710;2023-07-16T05:11:57;15.70;99.90
45339;DHT22;31071;51.478;5.710;2023-07-16T05:14:25;16.60;99.90
45339;DHT22;31071;51.478;5.710;2023-07-16T05:16:51;15.80;99.90
45339;DHT22;31071;51.478;5.710;2023-07-16T05:19:16;15.90;99.90
45339;DHT22;31071;51.478;5.710;2023-07-16T05:21:42;16.80;99.90
45339;DHT22;31071;51.478;5.710;2023-07-16T05:24:08;17.20;99.90
45339;DHT22;31071;51.478;5.710;2023-07-16T05:26:33;15.80;99.90
45339;DHT22;31071;51.478;5.710;2023-07-16T05:28:59;16.10;99.90
45339;DHT22;31071;51.478;5.710;2023-07-16T05:31:24;16.00;99.90
45339;DHT22;31071;51.478;5.710;2023-07-16T05:33:50;16.50;99.90
45339;DHT22;31071;51.478;5.710;2023-07-16T05:36:15;16.00;99.90
45339;DHT22;31071;51.478;5.710;2023-07-16T05:38:41;16.50;99.90
45339;DHT22;31071;51.478;5.710;2023-07-16T05:41:06;16.10;99.90
45339;DHT22;31071;51.478;5.710;2023-07-16T05:43:32;16.10;99.90
45339;DHT22;31071;51.478;5.710;2023-07-16T05:45:58;16.10;99.90
45339;DHT22;31071;51.478;5.710;2023-07-16T05:48:24;16.90;99.90
45339;DHT22;31071;51.478;5.710;2023-07-16T05:50:50;16.20;99.90
45339;DHT22;31071;51.478;5.710;2023-07-16T05:53:16;16.30;99.90
45339;DHT22;31071;51.478;5.710;2023-07-16T05:55:41;16.30;99.90
45339;DHT22;31071;51.478;5.710;2023-07-16T05:58:07;16.40;99.90
45339;DHT22;31071;51.478;5.710;2023-07-16T06:00:36;16.50;99.90
45339;DHT22;31071;51.478;5.710;2023-07-16T06:03:02;16.40;99.90
45339;DHT22;31071;51.478;5.710;2023-07-16T06:05:28;16.50;99.90
45339;DHT22;31071;51.478;5.710;2023-07-16T06:07:58;16.70;99.90
45339;DHT22;31071;51.478;5.710;2023-07-16T06:10:24;16.70;99.90
45339;DHT22;31071;51.478;5.710;2023-07-16T06:12:49;16.70;99.90
45339;DHT22;31071;51.478;5.710;2023-07-16T06:15:15;18.30;99.90
45339;DHT22;31071;51.478;5.710;2023-07-16T06:17:40;16.70;99.90
45339;DHT22;31071;51.478;5.710;2023-07-16T06:20:07;16.80;99.90
45339;DHT22;31071;51.478;5.710;2023-07-16T06:22:33;16.90;99.90
45339;DHT22;31071;51.478;5.710;2023-07-16T06:25:02;16.90;99.90
45339;DHT22;31071;51.478;5.710;2023-07-16T06:27:30;16.80;99.90
45339;DHT22;31071;51.478;5.710;2023-07-16T06:29:55;17.00;99.90
45339;DHT22;31071;51.478;5.710;2023-07-16T06:32:21;17.00;99.90
45339;DHT22;31071;51.478;5.710;2023-07-16T06:34:47;17.40;99.90
45339;DHT22;31071;51.478;5.710;2023-07-16T06:37:12;17.20;99.90
45339;DHT22;31071;51.478;5.710;2023-07-16T06:39:38;17.20;99.90
45339;DHT22;31071;51.478;5.710;2023-07-16T06:42:04;17.10;99.90
45339;DHT22;31071;51.478;5.710;2023-07-16T06:44:29;17.20;99.90
45339;DHT22;31071;51.478;5.710;2023-07-16T06:46:55;17.30;99.90
45339;DHT22;31071;51.478;5.710;2023-07-16T06:49:21;17.90;99.90
45339;DHT22;31071;51.478;5.710;2023-07-16T06:51:47;17.40;99.90
45339;DHT22;31071;51.478;5.710;2023-07-16T06:54:13;17.50;99.90
45339;DHT22;31071;51.478;5.710;2023-07-16T06:56:38;17.50;99.90
45339;DHT22;31071;51.478;5.710;2023-07-16T06:59:04;17.40;99.90
45339;DHT22;31071;51.478;5.710;2023-07-16T07:01:30;17.60;99.90
45339;DHT22;31071;51.478;5.710;2023-07-16T07:03:56;18.10;99.90
45339;DHT22;31071;51.478;5.710;2023-07-16T07:06:22;17.70;99.90
45339;DHT22;31071;51.478;5.710;2023-07-16T07:08:47;17.70;99.90
45339;DHT22;31071;51.478;5.710;2023-07-16T07:11:13;17.70;99.90
45339;DHT22;31071;51.478;5.710;2023-07-16T07:13:39;18.20;99.90
45339;DHT22;31071;51.478;5.710;2023-07-16T07:16:04;18.00;99.90
45339;DHT22;31071;51.478;5.710;2023-07-16T07:18:30;18.10;99.90
45339;DHT22;31071;51.478;5.710;2023-07-16T07:20:55;18.20;99.90
45339;DHT22;31071;51.478;5.710;2023-07-16T07:23:21;18.00;99.90
45339;DHT22;31071;51.478;5.710;2023-07-16T07:25:51;18.40;99.90
45339;DHT22;31071;51.478;5.710;2023-07-16T07:28:18;18.20;99.90
45339;DHT22;31071;51.478;5.710;2023-07-16T07:30:44;18.80;99.90
45339;DHT22;31071;51.478;5.710;2023-07-16T07:33:10;18.30;99.90
45339;DHT22;31071;51.478;5.710;2023-07-16T07:35:35;18.40;99.90
45339;DHT22;31071;51.478;5.710;2023-07-16T07:38:01;18.70;99.90
45339;DHT22;31071;51.478;5.710;2023-07-16T07:40:27;18.50;99.90
45339;DHT22;31071;51.478;5.710;2023-07-16T07:42:52;20.30;99.90
45339;DHT22;31071;51.478;5.710;2023-07-16T07:45:19;18.60;99.90
45339;DHT22;31071;51.478;5.710;2023-07-16T07:47:46;19.90;99.90
45339;DHT22;31071;51.478;5.710;2023-07-16T07:50:12;18.80;99.90
45339;DHT22;31071;51.478;5.710;2023-07-16T07:52:37;20.40;99.90
45339;DHT22;31071;51.478;5.710;2023-07-16T07:55:03;20.10;99.90
45339;DHT22;31071;51.478;5.710;2023-07-16T07:57:29;19.00;99.90
45339;DHT22;31071;51.478;5.710;2023-07-16T07:59:56;19.10;99.90
45339;DHT22;31071;51.478;5.710;2023-07-16T08:02:23;19.20;99.90
45339;DHT22;31071;51.478;5.710;2023-07-16T08:04:51;20.50;99.90
45339;DHT22;31071;51.478;5.710;2023-07-16T08:07:16;19.20;99.90
45339;DHT22;31071;51.478;5.710;2023-07-16T08:09:42;20.00;99.90
45339;DHT22;31071;51.478;5.710;2023-07-16T08:12:08;19.10;99.90
45339;DHT22;31071;51.478;5.710;2023-07-16T08:14:34;20.40;99.90
45339;DHT22;31071;51.478;5.710;2023-07-16T08:16:59;19.20;99.90
45339;DHT22;31071;51.478;5.710;2023-07-16T08:19:25;21.30;99.90
45339;DHT22;31071;51.478;5.710;2023-07-16T08:21:50;20.00;99.90
45339;DHT22;31071;51.478;5.710;2023-07-16T08:24:16;20.20;99.90
45339;DHT22;31071;51.478;5.710;2023-07-16T08:26:42;21.80;99.90
45339;DHT22;31071;51.478;5.710;2023-07-16T08:29:07;20.50;99.50
45339;DHT22;31071;51.478;5.710;2023-07-16T08:31:33;20.50;99.10
45339;DHT22;31071;51.478;5.710;2023-07-16T08:34:01;20.10;99.30
45339;DHT22;31071;51.478;5.710;2023-07-16T08:36:27;19.90;99.70
45339;DHT22;31071;51.478;5.710;2023-07-16T08:38:52;20.10;99.90
45339;DHT22;31071;51.478;5.710;2023-07-16T08:41:18;20.30;99.10
45339;DHT22;31071;51.478;5.710;2023-07-16T08:43:46;20.30;99.00
45339;DHT22;31071;51.478;5.710;2023-07-16T08:46:13;20.40;99.10
45339;DHT22;31071;51.478;5.710;2023-07-16T08:48:39;20.70;98.40
45339;DHT22;31071;51.478;5.710;2023-07-16T08:51:09;20.80;97.70
45339;DHT22;31071;51.478;5.710;2023-07-16T08:53:36;20.80;98.00
45339;DHT22;31071;51.478;5.710;2023-07-16T08:56:03;20.50;97.70
45339;DHT22;31071;51.478;5.710;2023-07-16T08:58:30;20.50;97.80
45339;DHT22;31071;51.478;5.710;2023-07-16T09:00:56;22.20;98.90
45339;DHT22;31071;51.478;5.710;2023-07-16T09:03:23;21.00;97.90
45339;DHT22;31071;51.478;5.710;2023-07-16T09:05:48;20.90;97.30
45339;DHT22;31071;51.478;5.710;2023-07-16T09:08:14;21.40;97.80
45339;DHT22;31071;51.478;5.710;2023-07-16T09:10:41;22.80;97.60
45339;DHT22;31071;51.478;5.710;2023-07-16T09:13:07;21.90;97.10
45339;DHT22;31071;51.478;5.710;2023-07-16T09:15:33;21.20;96.90
45339;DHT22;31071;51.478;5.710;2023-07-16T09:18:00;20.90;96.50
45339;DHT22;31071;51.478;5.710;2023-07-16T09:20:26;20.80;96.90
45339;DHT22;31071;51.478;5.710;2023-07-16T09:22:56;21.20;96.70
45339;DHT22;31071;51.478;5.710;2023-07-16T09:25:31;21.30;97.00
45339;DHT22;31071;51.478;5.710;2023-07-16T09:28:01;21.20;95.80
45339;DHT22;31071;51.478;5.710;2023-07-16T09:30:34;21.00;95.80
45339;DHT22;31071;51.478;5.710;2023-07-16T09:33:17;21.00;96.10
45339;DHT22;31071;51.478;5.710;2023-07-16T09:35:43;21.30;95.60
45339;DHT22;31071;51.478;5.710;2023-07-16T09:38:09;21.60;95.00
45339;DHT22;31071;51.478;5.710;2023-07-16T09:40:39;22.10;95.10
45339;DHT22;31071;51.478;5.710;2023-07-16T09:43:06;21.60;95.90
45339;DHT22;31071;51.478;5.710;2023-07-16T09:45:31;21.80;95.20
45339;DHT22;31071;51.478;5.710;2023-07-16T09:47:57;22.10;95.10
45339;DHT22;31071;51.478;5.710;2023-07-16T09:50:28;22.40;94.00
45339;DHT22;31071;51.478;5.710;2023-07-16T09:52:56;22.00;93.40
45339;DHT22;31071;51.478;5.710;2023-07-16T09:55:22;21.70;94.00
45339;DHT22;31071;51.478;5.710;2023-07-16T09:57:49;21.70;93.60
45339;DHT22;31071;51.478;5.710;2023-07-16T10:00:15;21.60;93.90
45339;DHT22;31071;51.478;5.710;2023-07-16T10:02:42;21.70;94.50
45339;DHT22;31071;51.478;5.710;2023-07-16T10:05:19;22.10;93.70
45339;DHT22;31071;51.478;5.710;2023-07-16T10:07:56;22.50;92.60
45339;DHT22;31071;51.478;5.710;2023-07-16T10:10:26;22.30;92.40
45339;DHT22;31071;51.478;5.710;2023-07-16T10:13:03;22.40;93.10
45339;DHT22;31071;51.478;5.710;2023-07-16T10:15:30;23.00;92.50
45339;DHT22;31071;51.478;5.710;2023-07-16T10:17:56;22.90;91.50
45339;DHT22;31071;51.478;5.710;2023-07-16T10:20:42;22.70;91.40
45339;DHT22;31071;51.478;5.710;2023-07-16T10:23:13;22.00;91.80
45339;DHT22;31071;51.478;5.710;2023-07-16T10:25:39;21.60;92.10
45339;DHT22;31071;51.478;5.710;2023-07-16T10:28:05;21.60;92.70
45339;DHT22;31071;51.478;5.710;2023-07-16T10:30:32;21.30;92.80
45339;DHT22;31071;51.478;5.710;2023-07-16T10:32:58;21.20;92.80
45339;DHT22;31071;51.478;5.710;2023-07-16T10:35:25;21.40;93.30
45339;DHT22;31071;51.478;5.710;2023-07-16T10:37:51;21.80;93.50
45339;DHT22;31071;51.478;5.710;2023-07-16T10:40:16;21.40;92.90
45339;DHT22;31071;51.478;5.710;2023-07-16T10:42:43;21.30;93.30
45339;DHT22;31071;51.478;5.710;2023-07-16T10:45:10;22.30;93.60
45339;DHT22;31071;51.478;5.710;2023-07-16T10:47:39;21.30;93.40
45339;DHT22;31071;51.478;5.710;2023-07-16T10:50:07;22.10;93.80
45339;DHT22;31071;51.478;5.710;2023-07-16T10:52:34;21.00;93.80
45339;DHT22;31071;51.478;5.710;2023-07-16T10:55:01;21.20;94.30
45339;DHT22;31071;51.478;5.710;2023-07-16T10:57:27;21.10;94.30
45339;DHT22;31071;51.478;5.710;2023-07-16T10:59:54;21.20;94.10
45339;DHT22;31071;51.478;5.710;2023-07-16T11:02:21;22.60;94.20
45339;DHT22;31071;51.478;5.710;2023-07-16T11:04:48;21.70;93.90
45339;DHT22;31071;51.478;5.710;2023-07-16T11:07:15;22.40;94.70
45339;DHT22;31071;51.478;5.710;2023-07-16T11:09:51;21.00;94.40
45339;DHT22;31071;51.478;5.710;2023-07-16T11:12:21;20.70;94.10
45339;DHT22;31071;51.478;5.710;2023-07-16T11:14:57;22.60;94.50
45339;DHT22;31071;51.478;5.710;2023-07-16T11:17:55;20.60;94.40
45339;DHT22;31071;51.478;5.710;2023-07-16T11:28:49;21.40;93.80
45339;DHT22;31071;51.478;5.710;2023-07-16T11:48:49;21.30;94.40
45339;DHT22;31071;51.478;5.710;2023-07-16T12:07:01;21.30;93.30
45339;DHT22;31071;51.478;5.710;2023-07-16T12:09:34;22.90;94.20
45339;DHT22;31071;51.478;5.710;2023-07-16T12:12:37;21.60;94.20
45339;DHT22;31071;51.478;5.710;2023-07-16T12:23:26;21.90;93.70
45339;DHT22;31071;51.478;5.710;2023-07-16T12:26:28;22.60;93.90
45339;DHT22;31071;51.478;5.710;2023-07-16T12:29:25;21.10;93.40
45339;DHT22;31071;51.478;5.710;2023-07-16T12:34:54;21.70;93.70
45339;DHT22;31071;51.478;5.710;2023-07-16T12:37:48;22.30;92.90
45339;DHT22;31071;51.478;5.710;2023-07-16T13:08:21;21.50;92.20
45339;DHT22;31071;51.478;5.710;2023-07-16T13:15:17;24.20;85.30
45339;DHT22;31071;51.478;5.710;2023-07-16T13:18:19;26.50;82.50
45339;DHT22;31071;51.478;5.710;2023-07-16T13:24:54;25.20;84.00
45339;DHT22;31071;51.478;5.710;2023-07-16T13:27:38;24.60;86.00
45339;DHT22;31071;51.478;5.710;2023-07-16T13:30:37;25.20;87.90
45339;DHT22;31071;51.478;5.710;2023-07-16T13:33:25;24.50;85.70
45339;DHT22;31071;51.478;5.710;2023-07-16T13:35:52;24.20;87.70
45339;DHT22;31071;51.478;5.710;2023-07-16T13:38:17;24.10;86.70
45339;DHT22;31071;51.478;5.710;2023-07-16T14:26:50;24.70;83.00
45339;DHT22;31071;51.478;5.710;2023-07-16T14:32:56;24.90;82.40
45339;DHT22;31071;51.478;5.710;2023-07-16T14:55:50;23.60;82.90
45339;DHT22;31071;51.478;5.710;2023-07-16T14:58:20;23.60;83.70
45339;DHT22;31071;51.478;5.710;2023-07-16T15:00:46;24.60;84.10
45339;DHT22;31071;51.478;5.710;2023-07-16T15:03:18;23.30;83.60
45339;DHT22;31071;51.478;5.710;2023-07-16T15:05:44;25.40;84.20
45339;DHT22;31071;51.478;5.710;2023-07-16T15:08:10;24.20;84.10
45339;DHT22;31071;51.478;5.710;2023-07-16T15:10:37;23.70;83.60
45339;DHT22;31071;51.478;5.710;2023-07-16T15:13:03;24.40;83.40
45339;DHT22;31071;51.478;5.710;2023-07-16T15:15:29;24.40;83.10
45339;DHT22;31071;51.478;5.710;2023-07-16T15:17:55;24.60;83.10
45339;DHT22;31071;51.478;5.710;2023-07-16T15:20:22;24.20;83.80
45339;DHT22;31071;51.478;5.710;2023-07-16T15:22:49;24.70;83.90
45339;DHT22;31071;51.478;5.710;2023-07-16T15:25:22;24.30;83.80
45339;DHT22;31071;51.478;5.710;2023-07-16T15:27:49;24.10;83.60
45339;DHT22;31071;51.478;5.710;2023-07-16T15:30:15;25.50;86.10
45339;DHT22;31071;51.478;5.710;2023-07-16T15:32:41;24.70;85.20
45339;DHT22;31071;51.478;5.710;2023-07-16T15:35:08;23.70;85.60
45339;DHT22;31071;51.478;5.710;2023-07-16T15:37:34;23.60;85.60
45339;DHT22;31071;51.478;5.710;2023-07-16T15:40:13;24.90;87.50
45339;DHT22;31071;51.478;5.710;2023-07-16T15:42:40;23.30;87.60
45339;DHT22;31071;51.478;5.710;2023-07-16T15:47:56;23.50;86.40
45339;DHT22;31071;51.478;5.710;2023-07-16T15:50:24;24.00;87.00
45339;DHT22;31071;51.478;5.710;2023-07-16T15:52:52;24.80;86.80
45339;DHT22;31071;51.478;5.710;2023-07-16T15:55:24;22.70;86.60
45339;DHT22;31071;51.478;5.710;2023-07-16T15:57:57;22.90;87.70
45339;DHT22;31071;51.478;5.710;2023-07-16T16:00:26;22.90;89.90
45339;DHT22;31071;51.478;5.710;2023-07-16T16:03:01;22.80;88.20
45339;DHT22;31071;51.478;5.710;2023-07-16T16:12:30;22.80;87.80
45339;DHT22;31071;51.478;5.710;2023-07-16T16:15:09;22.80;88.20
45339;DHT22;31071;51.478;5.710;2023-07-16T16:21:08;22.60;88.70
45339;DHT22;31071;51.478;5.710;2023-07-16T16:28:12;22.70;87.30
45339;DHT22;31071;51.478;5.710;2023-07-16T16:31:04;21.60;87.10
45339;DHT22;31071;51.478;5.710;2023-07-16T16:33:34;22.80;88.60
45339;DHT22;31071;51.478;5.710;2023-07-16T16:36:01;23.00;86.40
45339;DHT22;31071;51.478;5.710;2023-07-16T16:45:13;22.90;87.20
45339;DHT22;31071;51.478;5.710;2023-07-16T16:47:43;22.40;86.60
45339;DHT22;31071;51.478;5.710;2023-07-16T16:56:27;22.10;87.90
45339;DHT22;31071;51.478;5.710;2023-07-16T17:02:45;22.50;87.60
45339;DHT22;31071;51.478;5.710;2023-07-16T17:05:31;22.90;86.70
45339;DHT22;31071;51.478;5.710;2023-07-16T17:07:57;24.60;88.30
45339;DHT22;31071;51.478;5.710;2023-07-16T17:10:23;22.80;86.20
45339;DHT22;31071;51.478;5.710;2023-07-16T17:13:02;24.60;87.00
45339;DHT22;31071;51.478;5.710;2023-07-16T17:15:32;22.60;85.00
45339;DHT22;31071;51.478;5.710;2023-07-16T17:18:11;22.30;85.80
45339;DHT22;31071;51.478;5.710;2023-07-16T17:20:40;23.70;86.00
45339;DHT22;31071;51.478;5.710;2023-07-16T17:23:11;22.40;87.30
45339;DHT22;31071;51.478;5.710;2023-07-16T17:25:46;22.30;86.00
45339;DHT22;31071;51.478;5.710;2023-07-16T17:28:11;24.20;86.60
45339;DHT22;31071;51.478;5.710;2023-07-16T17:30:38;22.90;85.90
45339;DHT22;31071;51.478;5.710;2023-07-16T17:33:05;23.70;86.30
45339;DHT22;31071;51.478;5.710;2023-07-16T17:35:37;22.30;85.10
45339;DHT22;31071;51.478;5.710;2023-07-16T17:38:03;22.40;85.30
45339;DHT22;31071;51.478;5.710;2023-07-16T17:40:30;22.10;84.30
45339;DHT22;31071;51.478;5.710;2023-07-16T17:42:57;22.10;85.40
45339;DHT22;31071;51.478;5.710;2023-07-16T17:45:25;22.00;84.70
45339;DHT22;31071;51.478;5.710;2023-07-16T17:47:51;23.60;87.00
45339;DHT22;31071;51.478;5.710;2023-07-16T17:50:21;22.50;85.10
45339;DHT22;31071;51.478;5.710;2023-07-16T17:52:49;22.80;86.50
45339;DHT22;31071;51.478;5.710;2023-07-16T17:55:16;21.40;85.50
45339;DHT22;31071;51.478;5.710;2023-07-16T17:57:47;21.90;86.00
45339;DHT22;31071;51.478;5.710;2023-07-16T18:00:14;21.30;85.10
45339;DHT22;31071;51.478;5.710;2023-07-16T18:02:41;21.60;86.00
45339;DHT22;31071;51.478;5.710;2023-07-16T18:05:09;21.40;86.50
45339;DHT22;31071;51.478;5.710;2023-07-16T18:07:36;23.30;88.20
45339;DHT22;31071;51.478;5.710;2023-07-16T18:10:04;21.30;87.70
45339;DHT22;31071;51.478;5.710;2023-07-16T18:12:38;21.30;88.80
45339;DHT22;31071;51.478;5.710;2023-07-16T18:15:04;22.00;90.10
45339;DHT22;31071;51.478;5.710;2023-07-16T18:17:34;21.40;89.80
45339;DHT22;31071;51.478;5.710;2023-07-16T18:20:00;21.40;90.20
45339;DHT22;31071;51.478;5.710;2023-07-16T18:22:26;21.40;90.30
45339;DHT22;31071;51.478;5.710;2023-07-16T18:24:52;21.50;90.50
45339;DHT22;31071;51.478;5.710;2023-07-16T18:27:18;21.00;90.10
45339;DHT22;31071;51.478;5.710;2023-07-16T18:29:44;23.00;90.90
45339;DHT22;31071;51.478;5.710;2023-07-16T18:32:09;22.60;91.20
45339;DHT22;31071;51.478;5.710;2023-07-16T18:34:38;21.20;90.80
45339;DHT22;31071;51.478;5.710;2023-07-16T18:37:03;22.10;91.20
45339;DHT22;31071;51.478;5.710;2023-07-16T18:39:30;21.10;90.90
45339;DHT22;31071;51.478;5.710;2023-07-16T18:41:55;22.00;91.00
45339;DHT22;31071;51.478;5.710;2023-07-16T18:44:21;21.90;91.10
45339;DHT22;31071;51.478;5.710;2023-07-16T18:46:50;21.40;91.20
45339;DHT22;31071;51.478;5.710;2023-07-16T18:49:16;23.00;91.90
45339;DHT22;31071;51.478;5.710;2023-07-16T18:51:42;21.00;91.50
45339;DHT22;31071;51.478;5.710;2023-07-16T18:54:20;21.00;91.60